Time;durP1;ratioP1;P1;durP2;ratioP2;P2;SDS_P1;SDS_P2;PMS_P1;PMS_P2;Temp;Humidity;BMP_temperature;BMP_pressure;BME280_temperature;BME280_humidity;BME280_pressure;Samples;Min_cycle;Max_cycle;Signal;HPM_P1;HPM_P2
2021/09/07 00:00:58;;;;;;;8.90;7.13;;;13.60;99.90;;;;;;5042388;28;20853;-73
2021/09/07 00:03:26;;;;;;;12.67;7.90;;;13.60;99.90;;;;;;5027947;28;20483;-73
2021/09/07 00:05:52;;;;;;;9.67;7.50;;;13.50;99.90;;;;;;5028095;28;20468;-73
2021/09/07 00:08:19;;;;;;;8.60;7.53;;;13.50;99.90;;;;;;5034659;28;20475;-72
2021/09/07 00:10:46;;;;;;;11.57;8.40;;;13.50;99.90;;;;;;5041209;28;20460;-73
2021/09/07 00:13:13;;;;;;;10.03;8.30;;;13.50;99.90;;;;;;5042225;28;20454;-73
2021/09/07 00:15:39;;;;;;;9.80;8.40;;;13.40;99.90;;;;;;5040927;28;20466;-73
2021/09/07 00:18:06;;;;;;;8.97;8.07;;;13.40;99.90;;;;;;5041874;28;20502;-73
2021/09/07 00:20:34;;;;;;;10.83;7.90;;;13.40;99.90;;;;;;5041826;28;20452;-73
2021/09/07 00:23:01;;;;;;;8.40;7.50;;;13.40;99.90;;;;;;5040696;28;20483;-73
2021/09/07 00:25:28;;;;;;;8.43;7.53;;;13.40;99.90;;;;;;5105510;22;22001;-68
2021/09/07 00:27:55;;;;;;;8.50;7.20;;;13.40;99.90;;;;;;5042962;28;20480;-68
2021/09/07 00:30:23;;;;;;;8.43;7.43;;;13.40;99.90;;;;;;5031467;28;20452;-68
2021/09/07 00:32:50;;;;;;;9.50;8.13;;;13.40;99.90;;;;;;5032262;28;20460;-68
2021/09/07 00:35:17;;;;;;;9.27;8.20;;;13.30;99.90;;;;;;5031860;28;20797;-69
2021/09/07 00:37:45;;;;;;;12.10;8.17;;;13.30;99.90;;;;;;5031996;28;20472;-68
2021/09/07 00:40:12;;;;;;;11.10;8.67;;;13.30;99.90;;;;;;5031740;28;20459;-68
2021/09/07 00:42:39;;;;;;;8.93;7.70;;;13.20;99.90;;;;;;5031054;28;20797;-68
2021/09/07 00:45:10;;;;;;;10.40;7.87;;;13.20;99.90;;;;;;5032248;28;20471;-68
2021/09/07 00:47:37;;;;;;;9.10;7.97;;;13.20;99.90;;;;;;5041444;28;20483;-68
2021/09/07 00:50:04;;;;;;;8.70;7.80;;;13.10;99.90;;;;;;5044506;28;20461;-68
2021/09/07 00:52:31;;;;;;;8.70;7.80;;;13.10;99.90;;;;;;5031051;28;20460;-68
2021/09/07 00:55:00;;;;;;;8.03;7.20;;;13.10;99.90;;;;;;5031468;28;20452;-68
2021/09/07 00:57:28;;;;;;;13.20;7.70;;;13.10;99.90;;;;;;5032036;28;20484;-68
2021/09/07 00:59:55;;;;;;;9.27;7.73;;;13.10;99.90;;;;;;5031894;28;20967;-68
2021/09/07 01:02:22;;;;;;;9.00;7.63;;;13.10;99.90;;;;;;5031877;28;20476;-68
2021/09/07 01:04:49;;;;;;;8.73;7.37;;;13.10;99.90;;;;;;5032038;28;20488;-68
2021/09/07 01:07:18;;;;;;;9.13;8.23;;;13.00;99.90;;;;;;5032193;28;20492;-68
2021/09/07 01:09:45;;;;;;;9.83;7.73;;;13.00;99.90;;;;;;5031717;28;20460;-68
2021/09/07 01:12:13;;;;;;;10.23;7.70;;;13.00;99.90;;;;;;5031904;28;20478;-68
2021/09/07 01:14:41;;;;;;;8.43;7.57;;;12.90;99.90;;;;;;5032052;28;20801;-68
2021/09/07 01:17:12;;;;;;;9.00;8.13;;;12.90;99.90;;;;;;5031730;28;20491;-68
2021/09/07 01:19:39;;;;;;;10.50;8.70;;;12.90;99.90;;;;;;5031579;28;20475;-68
2021/09/07 01:22:05;;;;;;;9.00;7.50;;;12.90;99.90;;;;;;5031318;28;20464;-68
2021/09/07 01:24:35;;;;;;;9.67;7.13;;;12.90;99.90;;;;;;5031549;28;21030;-68
2021/09/07 01:27:05;;;;;;;9.53;8.03;;;12.90;99.90;;;;;;5031826;28;20520;-69
2021/09/07 01:29:32;;;;;;;11.80;7.60;;;12.90;99.90;;;;;;5030964;28;20468;-68
2021/09/07 01:31:59;;;;;;;8.60;7.70;;;12.90;99.90;;;;;;5031945;28;20542;-68
2021/09/07 01:34:27;;;;;;;9.00;8.20;;;12.90;99.90;;;;;;5031190;28;20467;-68
2021/09/07 01:36:54;;;;;;;8.87;7.67;;;12.90;99.90;;;;;;5031808;28;20507;-68
2021/09/07 01:39:21;;;;;;;8.43;7.17;;;12.90;99.90;;;;;;5031121;28;20978;-68
2021/09/07 01:41:50;;;;;;;9.80;8.17;;;12.90;99.90;;;;;;5031414;28;20463;-68
2021/09/07 01:44:17;;;;;;;7.57;6.80;;;12.80;99.90;;;;;;5031267;28;20535;-68
2021/09/07 01:46:44;;;;;;;8.87;7.97;;;12.80;99.90;;;;;;5031206;28;20484;-68
2021/09/07 01:49:11;;;;;;;10.37;8.20;;;12.80;99.90;;;;;;5031273;28;20466;-68
2021/09/07 01:51:38;;;;;;;8.83;7.90;;;12.80;99.90;;;;;;5031160;28;20464;-68
2021/09/07 01:54:06;;;;;;;11.47;7.73;;;12.80;99.90;;;;;;5030871;28;20551;-68
2021/09/07 01:56:32;;;;;;;11.63;7.60;;;12.70;99.90;;;;;;5031017;28;20476;-68
2021/09/07 01:59:01;;;;;;;10.60;7.90;;;12.70;99.90;;;;;;5030888;28;20466;-68
2021/09/07 02:01:27;;;;;;;8.27;7.33;;;12.70;99.90;;;;;;5031093;28;20468;-68
2021/09/07 02:03:54;;;;;;;9.80;7.80;;;12.70;99.90;;;;;;5030994;28;20855;-68
2021/09/07 02:06:21;;;;;;;8.97;7.93;;;12.60;99.90;;;;;;5030915;28;20472;-68
2021/09/07 02:08:48;;;;;;;10.43;7.63;;;12.60;99.90;;;;;;5031459;28;20503;-68
2021/09/07 02:11:14;;;;;;;13.80;8.30;;;12.60;99.90;;;;;;5030764;28;20467;-68
2021/09/07 02:13:41;;;;;;;11.20;8.83;;;12.60;99.90;;;;;;5030968;28;20460;-68
2021/09/07 02:16:09;;;;;;;9.40;8.40;;;12.60;99.90;;;;;;5031445;28;20828;-68
2021/09/07 02:18:36;;;;;;;12.23;8.13;;;12.60;99.90;;;;;;5030854;28;20491;-68
2021/09/07 02:21:03;;;;;;;8.93;8.03;;;12.50;99.90;;;;;;5030936;28;20460;-68
2021/09/07 02:23:29;;;;;;;11.90;7.43;;;12.50;99.90;;;;;;5030204;28;20876;-68
2021/09/07 02:25:56;;;;;;;9.33;8.10;;;12.60;99.90;;;;;;5030924;28;20471;-68
2021/09/07 02:28:23;;;;;;;9.37;8.10;;;12.50;99.90;;;;;;5030365;28;20487;-68
2021/09/07 02:30:50;;;;;;;9.13;8.03;;;12.50;99.90;;;;;;5030598;28;20457;-68
2021/09/07 02:33:19;;;;;;;10.00;8.10;;;12.50;99.90;;;;;;5030132;28;20811;-68
2021/09/07 02:35:45;;;;;;;8.23;7.30;;;12.40;99.90;;;;;;5030642;28;20460;-68
2021/09/07 02:38:12;;;;;;;9.27;8.20;;;12.50;99.90;;;;;;5030949;28;20479;-68
2021/09/07 02:40:39;;;;;;;10.73;8.07;;;12.40;99.90;;;;;;5030107;28;20965;-68
2021/09/07 02:43:06;;;;;;;10.73;8.60;;;12.40;99.90;;;;;;5030758;28;20459;-68
2021/09/07 02:45:32;;;;;;;9.40;7.73;;;12.40;99.90;;;;;;5030628;28;20570;-68
2021/09/07 02:47:59;;;;;;;8.97;8.07;;;12.40;99.90;;;;;;5030532;28;21014;-68
2021/09/07 02:50:27;;;;;;;8.87;7.70;;;12.40;99.90;;;;;;5030318;28;20467;-68
2021/09/07 02:52:55;;;;;;;9.13;7.40;;;12.40;99.90;;;;;;5030273;28;20928;-68
2021/09/07 02:55:22;;;;;;;11.17;8.73;;;12.30;99.90;;;;;;5030546;28;20467;-68
2021/09/07 02:57:48;;;;;;;12.43;8.63;;;12.30;99.90;;;;;;5030730;28;21073;-68
2021/09/07 03:00:16;;;;;;;10.10;7.97;;;12.30;99.90;;;;;;5029992;28;20487;-68
2021/09/07 03:02:42;;;;;;;11.40;8.60;;;12.40;99.90;;;;;;5030264;28;20469;-68
2021/09/07 03:05:10;;;;;;;9.80;8.90;;;12.40;99.90;;;;;;5030181;28;20484;-68
2021/09/07 03:07:38;;;;;;;12.13;9.17;;;12.40;99.90;;;;;;5030361;28;20488;-68
2021/09/07 03:10:06;;;;;;;12.30;8.40;;;12.30;99.90;;;;;;5030130;28;20471;-68
2021/09/07 03:12:32;;;;;;;11.17;8.53;;;12.30;99.90;;;;;;5030041;28;20552;-68
2021/09/07 03:14:59;;;;;;;9.77;7.80;;;12.30;99.90;;;;;;5030638;28;20457;-68
2021/09/07 03:17:26;;;;;;;12.80;8.53;;;12.30;99.90;;;;;;5029931;28;20480;-68
2021/09/07 03:19:52;;;;;;;11.97;9.40;;;12.30;99.90;;;;;;5030160;28;20860;-68
2021/09/07 03:22:19;;;;;;;9.53;8.53;;;12.30;99.90;;;;;;5029895;28;20463;-68
2021/09/07 03:24:47;;;;;;;11.53;8.80;;;12.20;99.90;;;;;;5030191;28;20999;-68
2021/09/07 03:27:14;;;;;;;9.70;8.67;;;12.20;99.90;;;;;;5030277;28;20511;-68
2021/09/07 03:29:40;;;;;;;9.27;8.10;;;12.10;99.90;;;;;;5029393;28;20460;-68
2021/09/07 03:32:08;;;;;;;11.60;8.60;;;12.10;99.90;;;;;;5030332;28;20464;-68
2021/09/07 03:34:34;;;;;;;12.63;8.63;;;12.10;99.90;;;;;;5035025;28;20852;-68
2021/09/07 03:37:01;;;;;;;11.90;9.60;;;12.10;99.90;;;;;;5041361;28;20484;-68
2021/09/07 03:39:28;;;;;;;9.50;8.50;;;12.00;99.90;;;;;;5038507;28;20556;-68
2021/09/07 03:41:56;;;;;;;8.93;8.03;;;12.00;99.90;;;;;;5043470;28;20463;-68
2021/09/07 03:44:23;;;;;;;10.70;8.70;;;11.90;99.90;;;;;;5040623;28;20487;-68
2021/09/07 03:46:50;;;;;;;10.70;8.37;;;11.90;99.90;;;;;;5041157;28;20508;-68
2021/09/07 03:49:16;;;;;;;10.77;8.53;;;11.90;99.90;;;;;;5041529;28;20460;-68
2021/09/07 03:51:43;;;;;;;9.63;8.50;;;11.90;99.90;;;;;;5042323;28;20486;-68
2021/09/07 03:54:10;;;;;;;10.87;9.70;;;11.90;99.90;;;;;;5041193;28;20464;-68
2021/09/07 03:56:36;;;;;;;10.45;9.35;;;11.90;99.90;;;;;;5042106;28;20467;-67
2021/09/07 03:59:05;;;;;;;10.63;9.27;;;12.00;99.90;;;;;;5043224;28;20243;-68
2021/09/07 04:01:31;;;;;;;9.90;8.80;;;11.90;99.90;;;;;;5038835;28;20467;-68
2021/09/07 04:03:58;;;;;;;11.70;9.13;;;11.90;99.90;;;;;;5037920;28;20834;-68
2021/09/07 04:06:25;;;;;;;9.20;8.20;;;11.90;99.90;;;;;;5042103;28;20453;-68
2021/09/07 04:08:51;;;;;;;10.70;8.70;;;11.80;99.90;;;;;;5043181;28;20459;-67
2021/09/07 04:11:18;;;;;;;13.88;9.15;;;11.80;99.90;;;;;;5040696;28;20837;-67
2021/09/07 04:13:45;;;;;;;8.83;7.93;;;11.80;99.90;;;;;;5041217;28;20205;-68
2021/09/07 04:16:13;;;;;;;8.70;7.87;;;11.80;99.90;;;;;;5041769;28;20970;-67
2021/09/07 04:18:40;;;;;;;9.87;8.87;;;11.80;99.90;;;;;;5040999;28;20483;-67
2021/09/07 04:21:09;;;;;;;8.57;7.73;;;11.80;99.90;;;;;;5041041;28;20459;-67
2021/09/07 04:23:36;;;;;;;8.70;7.80;;;11.80;99.90;;;;;;5042022;28;20809;-68
2021/09/07 04:26:02;;;;;;;9.43;8.23;;;11.80;99.90;;;;;;5041573;28;20522;-67
2021/09/07 04:28:29;;;;;;;9.53;8.53;;;11.80;99.90;;;;;;5035282;28;20494;-67
2021/09/07 04:30:56;;;;;;;8.57;7.77;;;11.80;99.90;;;;;;5032509;28;20464;-68
2021/09/07 04:33:24;;;;;;;9.37;8.40;;;11.90;99.90;;;;;;5031897;28;20471;-68
2021/09/07 04:35:51;;;;;;;10.90;8.60;;;11.90;99.90;;;;;;5032184;28;20456;-68
2021/09/07 04:38:17;;;;;;;8.63;7.83;;;11.80;99.90;;;;;;5032747;28;20484;-67
2021/09/07 04:40:44;;;;;;;8.33;7.40;;;11.90;99.90;;;;;;5032111;28;20470;-67
2021/09/07 04:43:11;;;;;;;9.53;8.40;;;11.80;99.90;;;;;;5032789;28;20460;-68
2021/09/07 04:45:38;;;;;;;8.70;7.80;;;11.70;99.90;;;;;;5032365;28;20983;-68
2021/09/07 04:48:05;;;;;;;9.70;8.23;;;11.80;99.90;;;;;;5032397;28;21015;-68
2021/09/07 04:50:33;;;;;;;8.77;7.70;;;11.70;99.90;;;;;;5031955;28;20464;-68
2021/09/07 04:52:59;;;;;;;11.13;8.63;;;11.70;99.90;;;;;;5031960;28;20460;-67
2021/09/07 04:55:26;;;;;;;9.80;8.67;;;11.70;99.90;;;;;;5031576;28;20456;-69
2021/09/07 04:57:53;;;;;;;9.23;7.90;;;11.70;99.90;;;;;;5032454;28;20855;-69
2021/09/07 05:00:19;;;;;;;9.50;8.25;;;11.70;99.90;;;;;;5033704;28;20460;-69
2021/09/07 05:02:46;;;;;;;11.80;8.40;;;11.70;99.90;;;;;;5051238;28;20673;-69
2021/09/07 05:05:13;;;;;;;9.50;8.57;;;11.70;99.90;;;;;;5051909;28;20493;-69
2021/09/07 05:07:41;;;;;;;10.30;8.20;;;11.70;99.90;;;;;;5051931;28;20502;-69
2021/09/07 05:10:09;;;;;;;10.53;8.23;;;11.80;99.90;;;;;;5051853;28;20467;-69
2021/09/07 05:12:36;;;;;;;10.03;7.80;;;11.70;99.90;;;;;;5051562;28;20486;-69
2021/09/07 05:15:03;;;;;;;9.67;8.00;;;11.80;99.90;;;;;;5052146;28;20455;-69
2021/09/07 05:17:30;;;;;;;10.57;8.40;;;11.80;99.90;;;;;;5051453;28;20846;-69
2021/09/07 05:19:56;;;;;;;9.80;7.77;;;11.80;99.90;;;;;;5051748;28;20464;-68
2021/09/07 05:22:23;;;;;;;10.03;8.07;;;11.80;99.90;;;;;;5051434;28;20490;-68
2021/09/07 05:24:51;;;;;;;9.70;8.50;;;11.80;99.90;;;;;;5051712;28;20844;-69
2021/09/07 05:27:18;;;;;;;9.90;8.13;;;11.90;99.90;;;;;;5051584;28;20491;-69
2021/09/07 05:29:44;;;;;;;10.40;8.40;;;11.90;99.90;;;;;;5051038;28;20832;-69
2021/09/07 05:32:11;;;;;;;11.90;8.70;;;11.90;99.90;;;;;;5051937;28;20467;-69
2021/09/07 05:34:39;;;;;;;11.80;8.50;;;12.00;99.90;;;;;;5051248;28;20455;-69
2021/09/07 05:37:06;;;;;;;10.77;8.30;;;12.00;99.90;;;;;;5051767;28;20487;-69
2021/09/07 05:39:33;;;;;;;9.17;8.27;;;12.10;99.90;;;;;;5050686;28;20459;-68
2021/09/07 05:42:01;;;;;;;11.80;9.20;;;12.10;99.90;;;;;;5051356;28;20463;-69
2021/09/07 05:44:28;;;;;;;11.40;8.03;;;12.10;99.90;;;;;;5050913;28;20475;-68
2021/09/07 05:46:54;;;;;;;11.63;9.00;;;12.10;99.90;;;;;;5051061;28;20483;-68
2021/09/07 05:49:21;;;;;;;10.90;8.80;;;12.20;99.90;;;;;;5050849;28;21019;-69
2021/09/07 05:51:48;;;;;;;11.03;8.37;;;12.20;99.90;;;;;;5051270;28;20460;-68
2021/09/07 05:54:14;;;;;;;9.80;8.80;;;12.30;99.90;;;;;;5050623;28;20456;-68
2021/09/07 05:56:41;;;;;;;9.43;8.13;;;12.30;99.90;;;;;;5051097;28;20974;-68
2021/09/07 05:59:09;;;;;;;10.63;9.27;;;12.40;99.90;;;;;;5050777;28;20483;-68
2021/09/07 06:01:38;;;;;;;10.07;8.37;;;12.40;99.90;;;;;;5050418;28;20459;-68
2021/09/07 06:04:04;;;;;;;15.20;8.90;;;12.50;99.90;;;;;;5050841;28;20477;-68
2021/09/07 06:06:32;;;;;;;9.60;8.27;;;12.50;99.90;;;;;;5049977;28;20490;-68
2021/09/07 06:08:59;;;;;;;12.60;11.30;;;12.60;99.90;;;;;;5050547;28;20462;-69
2021/09/07 06:11:25;;;;;;;10.63;9.53;;;12.60;99.90;;;;;;5050091;28;20470;-68
2021/09/07 06:13:52;;;;;;;11.63;9.30;;;12.70;99.90;;;;;;5050913;28;20460;-68
2021/09/07 06:16:21;;;;;;;12.30;8.90;;;12.70;99.90;;;;;;5050787;28;20451;-68
2021/09/07 06:18:48;;;;;;;9.60;8.37;;;12.70;99.90;;;;;;5050735;28;20483;-68
2021/09/07 06:21:14;;;;;;;12.13;8.53;;;12.80;99.90;;;;;;5050564;28;20466;-68
2021/09/07 06:23:41;;;;;;;10.83;8.83;;;12.90;99.90;;;;;;5048660;28;20482;-68
2021/09/07 06:26:08;;;;;;;9.00;8.10;;;12.90;99.90;;;;;;5073855;22;20860;-93
2021/09/07 06:28:37;;;;;;;9.53;8.53;;;13.00;99.90;;;;;;5074297;28;20463;-92
2021/09/07 06:31:04;;;;;;;10.87;8.40;;;13.00;99.90;;;;;;5074312;28;20948;-92
2021/09/07 06:33:33;;;;;;;10.47;9.23;;;13.10;99.90;;;;;;5075073;28;20457;-91
2021/09/07 06:36:00;;;;;;;10.37;8.23;;;13.10;99.90;;;;;;5074771;28;20462;-91
2021/09/07 06:38:26;;;;;;;10.37;9.03;;;13.10;99.90;;;;;;5075144;28;21037;-92
2021/09/07 06:40:53;;;;;;;10.20;8.50;;;13.30;99.90;;;;;;5074296;28;20462;-92
2021/09/07 06:43:20;;;;;;;12.20;9.40;;;13.30;99.90;;;;;;5074960;28;20530;-92
2021/09/07 06:45:47;;;;;;;9.80;8.70;;;13.40;99.90;;;;;;5074418;28;20593;-92
2021/09/07 06:48:14;;;;;;;10.10;9.10;;;13.50;99.90;;;;;;5075378;28;20462;-93
2021/09/07 06:50:43;;;;;;;11.23;9.30;;;13.60;99.90;;;;;;5074289;28;20466;-92
2021/09/07 06:53:10;;;;;;;10.20;9.10;;;13.60;99.90;;;;;;5074036;28;20470;-91
2021/09/07 06:55:38;;;;;;;12.10;10.87;;;13.70;99.90;;;;;;5075268;28;20455;-92
2021/09/07 06:58:05;;;;;;;12.40;10.20;;;13.80;99.90;;;;;;5074953;28;20483;-92
2021/09/07 07:03:23;;;;;;;12.97;10.40;;;14.10;99.90;;;;;;5079822;28;20514;-93
2021/09/07 07:09:27;;;;;;;11.67;10.43;;;14.40;99.90;;;;;;5015636;28;20969;-93
2021/09/07 07:11:54;;;;;;;13.53;9.83;;;14.60;99.90;;;;;;5015280;28;20468;-93
2021/09/07 07:14:21;;;;;;;14.20;10.80;;;14.70;99.90;;;;;;5049989;28;20455;-93
2021/09/07 07:16:48;;;;;;;14.20;9.97;;;14.90;99.90;;;;;;5078521;28;20470;-92
2021/09/07 07:19:16;;;;;;;10.43;9.33;;;15.10;99.90;;;;;;5079905;28;20974;-93
2021/09/07 07:21:42;;;;;;;11.63;10.43;;;15.20;99.90;;;;;;5081307;28;20459;-94
2021/09/07 07:30:53;;;;;;;11.93;9.93;;;15.70;99.90;;;;;;5073250;28;20513;-93
2021/09/07 07:33:20;;;;;;;10.83;9.83;;;15.90;99.90;;;;;;5060512;28;20546;-93
2021/09/07 07:35:47;;;;;;;11.03;9.50;;;16.20;99.90;;;;;;5062042;28;20979;-94
2021/09/07 07:38:14;;;;;;;11.00;9.13;;;16.30;99.90;;;;;;5062089;28;20487;-93
2021/09/07 07:40:49;;;;;;;10.93;9.77;;;16.50;99.90;;;;;;5060161;28;20463;-91
2021/09/07 07:43:46;;;;;;;10.33;9.30;;;16.60;99.90;;;;;;5062083;28;20502;-92
2021/09/07 07:46:15;;;;;;;9.30;8.40;;;16.80;99.90;;;;;;5062162;28;20582;-93
2021/09/07 07:48:42;;;;;;;11.60;9.53;;;16.90;99.90;;;;;;5062341;28;20825;-94
2021/09/07 07:51:09;;;;;;;9.77;8.83;;;17.00;99.90;;;;;;5060929;28;20474;-94
2021/09/07 07:53:37;;;;;;;11.00;8.90;;;17.10;99.90;;;;;;5061742;28;20464;-93
2021/09/07 07:56:04;;;;;;;10.03;8.37;;;17.30;99.90;;;;;;5064793;28;20475;-93
2021/09/07 07:58:51;;;;;;;9.30;8.03;;;17.50;99.90;;;;;;5063603;28;20465;-93
2021/09/07 08:01:23;;;;;;;8.90;7.93;;;17.70;99.90;;;;;;5063956;28;20558;-93
2021/09/07 08:03:52;;;;;;;8.43;7.53;;;17.90;99.90;;;;;;5061976;28;20468;-93
2021/09/07 08:06:18;;;;;;;9.33;8.07;;;18.00;99.90;;;;;;5063069;28;20496;-93
2021/09/07 08:08:56;;;;;;;9.10;8.20;;;18.00;99.90;;;;;;5074448;28;20534;-94
2021/09/07 08:17:21;;;;;;;8.93;8.13;;;18.60;99.90;;;;;;5066090;28;20460;-92
2021/09/07 08:19:48;;;;;;;8.87;8.00;;;18.90;99.90;;;;;;5060474;28;20451;-92
2021/09/07 08:28:18;;;;;;;7.80;7.00;;;19.30;99.90;;;;;;5059394;23;20570;-68
2021/09/07 08:30:45;;;;;;;8.37;7.57;;;19.40;99.90;;;;;;5051526;28;20451;-68
2021/09/07 08:33:14;;;;;;;7.80;7.00;;;19.50;99.90;;;;;;5051868;28;20843;-68
2021/09/07 08:35:41;;;;;;;10.27;7.90;;;19.50;99.90;;;;;;5052876;28;20462;-67
2021/09/07 08:38:07;;;;;;;7.77;7.07;;;19.60;99.90;;;;;;5052056;28;20541;-67
2021/09/07 08:40:34;;;;;;;8.90;7.10;;;19.80;99.90;;;;;;5052143;28;20470;-68
2021/09/07 08:43:04;;;;;;;8.10;7.30;;;19.90;99.90;;;;;;5051916;28;20481;-67
2021/09/07 08:45:31;;;;;;;9.70;6.80;;;20.00;99.90;;;;;;5052271;28;20483;-67
2021/09/07 08:48:00;;;;;;;6.77;6.03;;;20.00;99.90;;;;;;5052275;28;20796;-67
2021/09/07 08:50:29;;;;;;;8.33;7.43;;;20.10;99.90;;;;;;5051060;28;20463;-67
2021/09/07 08:52:55;;;;;;;8.10;7.27;;;20.20;99.90;;;;;;5052144;28;20838;-68
2021/09/07 08:55:22;;;;;;;7.27;6.60;;;20.30;99.90;;;;;;5051054;28;20486;-68
2021/09/07 08:57:50;;;;;;;7.83;6.93;;;20.40;99.90;;;;;;5052267;28;20573;-68
2021/09/07 09:00:25;;;;;;;7.97;7.03;;;20.50;99.90;;;;;;5051422;28;20803;-68
2021/09/07 09:02:52;;;;;;;7.37;6.57;;;20.60;99.90;;;;;;5051246;28;20482;-68
2021/09/07 09:05:28;;;;;;;7.17;6.47;;;20.80;99.90;;;;;;5051724;28;20462;-68
2021/09/07 09:07:55;;;;;;;7.60;6.90;;;20.90;99.90;;;;;;5051381;28;20481;-68
2021/09/07 09:10:23;;;;;;;8.53;6.80;;;21.10;99.90;;;;;;5051654;28;21261;-68
2021/09/07 09:12:50;;;;;;;6.90;6.30;;;21.20;99.90;;;;;;5051554;28;20979;-68
2021/09/07 09:15:20;;;;;;;7.40;6.70;;;21.30;99.90;;;;;;5051868;28;20467;-68
2021/09/07 09:17:47;;;;;;;8.20;6.97;;;21.40;99.90;;;;;;5050336;28;20931;-67
2021/09/07 09:20:16;;;;;;;9.60;7.10;;;21.50;99.90;;;;;;5048905;28;20466;-68
2021/09/07 09:22:47;;;;;;;7.67;6.87;;;21.70;99.90;;;;;;5049666;28;20463;-68
2021/09/07 09:25:31;;;;;;;7.10;6.40;;;21.80;99.90;;;;;;5049017;28;20463;-67
2021/09/07 09:28:12;;;;;;;8.77;6.57;;;21.90;99.90;;;;;;5049731;28;20483;-68
2021/09/07 09:30:41;;;;;;;9.53;6.60;;;22.00;99.90;;;;;;5051212;28;20840;-68
2021/09/07 09:33:08;;;;;;;7.63;6.70;;;22.10;99.90;;;;;;5049317;28;20469;-68
2021/09/07 09:35:45;;;;;;;7.13;6.13;;;22.10;99.90;;;;;;5049533;28;20452;-68
2021/09/07 09:38:13;;;;;;;6.80;6.20;;;22.00;99.90;;;;;;5049345;28;20486;-67
2021/09/07 09:40:41;;;;;;;6.80;6.20;;;21.90;99.90;;;;;;5048826;28;20460;-67
2021/09/07 09:43:25;;;;;;;7.70;6.93;;;21.90;99.90;;;;;;5048195;28;20512;-67
2021/09/07 09:45:53;;;;;;;9.57;7.90;;;22.00;99.90;;;;;;5050301;28;20479;-67
2021/09/07 09:48:27;;;;;;;6.93;6.30;;;22.20;99.90;;;;;;5050812;28;20493;-67
2021/09/07 09:50:56;;;;;;;7.30;6.50;;;22.30;99.90;;;;;;5050934;28;20472;-67
2021/09/07 09:53:26;;;;;;;7.27;6.57;;;22.40;99.90;;;;;;5050480;28;20463;-67
2021/09/07 09:55:54;;;;;;;7.73;7.00;;;22.60;99.90;;;;;;5051268;28;20457;-67
2021/09/07 09:58:22;;;;;;;7.80;6.50;;;22.60;99.90;;;;;;5050897;28;21062;-67
2021/09/07 10:00:50;;;;;;;8.53;6.90;;;22.70;99.90;;;;;;5050627;28;20506;-67
2021/09/07 10:03:17;;;;;;;7.83;6.50;;;22.80;99.90;;;;;;5050533;28;20459;-67
2021/09/07 10:05:46;;;;;;;9.20;7.07;;;23.00;99.90;;;;;;5050752;28;20530;-67
2021/09/07 10:08:15;;;;;;;8.47;6.77;;;23.10;99.90;;;;;;5050482;28;20479;-67
2021/09/07 10:10:50;;;;;;;7.50;6.57;;;23.20;99.90;;;;;;5050593;28;20495;-67
2021/09/07 10:13:18;;;;;;;7.33;6.63;;;23.30;99.90;;;;;;5050062;28;21201;-67
2021/09/07 10:15:48;;;;;;;8.90;7.03;;;23.40;99.90;;;;;;5050759;28;20550;-67
2021/09/07 10:18:31;;;;;;;7.77;6.30;;;23.50;99.90;;;;;;5050038;28;20496;-68
2021/09/07 10:21:05;;;;;;;7.80;7.00;;;23.60;99.90;;;;;;5050082;28;20550;-67
2021/09/07 10:24:01;;;;;;;11.47;6.67;;;23.70;99.90;;;;;;5050348;28;20554;-67
2021/09/07 10:26:54;;;;;;;7.50;6.57;;;23.80;99.90;;;;;;5045930;28;20487;-67
2021/09/07 10:29:40;;;;;;;7.00;6.30;;;23.90;99.90;;;;;;5050842;28;20963;-67
2021/09/07 10:32:27;;;;;;;7.73;6.97;;;24.00;99.90;;;;;;5050664;28;20461;-67
2021/09/07 10:35:09;;;;;;;7.63;6.50;;;24.20;99.90;;;;;;5050641;28;20890;-67
2021/09/07 10:38:11;;;;;;;9.37;6.10;;;24.30;99.90;;;;;;5050533;28;20475;-67
2021/09/07 10:40:46;;;;;;;7.10;6.40;;;24.30;99.90;;;;;;5050341;28;20506;-67
2021/09/07 10:43:50;;;;;;;6.83;6.23;;;24.30;99.90;;;;;;5049888;28;20467;-67
2021/09/07 10:46:37;;;;;;;6.53;5.80;;;24.40;99.90;;;;;;5050257;28;20487;-67
2021/09/07 10:49:17;;;;;;;7.33;6.20;;;24.40;99.90;;;;;;5050158;28;20538;-67
2021/09/07 10:52:06;;;;;;;6.73;5.93;;;24.50;99.90;;;;;;5050153;28;20571;-67
2021/09/07 10:54:34;;;;;;;6.23;5.73;;;24.60;99.90;;;;;;5049418;28;20467;-67
2021/09/07 10:57:01;;;;;;;8.50;6.40;;;24.70;99.90;;;;;;5050202;28;20486;-67
2021/09/07 10:59:51;;;;;;;7.23;6.53;;;24.80;99.90;;;;;;5050118;28;20950;-68
2021/09/07 11:02:35;;;;;;;6.70;6.00;;;24.90;99.90;;;;;;5049032;28;20455;-67
2021/09/07 11:05:04;;;;;;;7.77;7.07;;;25.00;99.90;;;;;;5049923;28;20843;-67
2021/09/07 11:07:40;;;;;;;7.13;6.47;;;24.90;99.90;;;;;;5049777;28;20521;-67
2021/09/07 11:10:25;;;;;;;7.50;6.67;;;24.90;99.90;;;;;;5049537;28;20502;-67
2021/09/07 11:12:54;;;;;;;7.47;6.77;;;25.10;99.90;;;;;;5049682;28;20467;-67
2021/09/07 11:15:24;;;;;;;6.77;6.07;;;25.10;99.90;;;;;;5050437;28;21332;-67
2021/09/07 11:17:53;;;;;;;7.10;6.40;;;25.10;99.90;;;;;;5049748;28;20471;-67
2021/09/07 11:20:21;;;;;;;7.10;6.40;;;25.10;99.90;;;;;;5049480;28;20467;-67
2021/09/07 11:22:48;;;;;;;7.40;6.40;;;25.10;99.90;;;;;;5049798;28;20490;-67
2021/09/07 11:25:17;;;;;;;7.10;6.50;;;25.10;99.90;;;;;;5035570;28;20464;-67
2021/09/07 11:27:52;;;;;;;6.63;6.03;;;25.20;99.90;;;;;;5047513;28;20491;-67
2021/09/07 11:30:35;;;;;;;7.20;6.50;;;25.20;99.90;;;;;;5048231;28;20477;-67
2021/09/07 11:33:06;;;;;;;7.90;6.73;;;25.30;99.90;;;;;;5047546;28;20460;-67
2021/09/07 11:35:35;;;;;;;7.10;5.90;;;25.40;99.90;;;;;;5049301;28;20467;-67
2021/09/07 11:38:05;;;;;;;6.70;6.10;;;25.30;99.90;;;;;;5048850;28;21021;-68
2021/09/07 11:40:32;;;;;;;7.13;6.47;;;25.40;99.90;;;;;;5048894;28;20458;-67
2021/09/07 11:43:00;;;;;;;7.40;6.70;;;25.40;99.90;;;;;;5048361;28;20464;-67
2021/09/07 11:45:28;;;;;;;7.40;6.30;;;25.60;99.90;;;;;;5049281;28;20463;-67
2021/09/07 11:47:57;;;;;;;6.10;5.57;;;25.60;99.90;;;;;;5048099;28;20495;-67
2021/09/07 11:50:27;;;;;;;7.20;6.50;;;25.60;99.90;;;;;;5049266;28;20470;-67
2021/09/07 11:52:55;;;;;;;7.27;5.47;;;25.50;99.90;;;;;;5049380;28;20499;-67
2021/09/07 11:55:45;;;;;;;7.30;6.30;;;25.60;99.90;;;;;;5049630;28;20467;-67
2021/09/07 11:58:27;;;;;;;6.67;6.07;;;25.70;99.90;;;;;;5049516;28;20885;-67
2021/09/07 12:01:02;;;;;;;6.47;5.83;;;25.80;99.90;;;;;;5049203;28;20463;-67
2021/09/07 12:03:42;;;;;;;7.00;6.30;;;25.80;99.90;;;;;;5049506;28;20459;-68
2021/09/07 12:06:11;;;;;;;6.90;5.80;;;25.80;99.90;;;;;;5052499;28;20463;-67
2021/09/07 12:08:40;;;;;;;10.00;6.53;;;25.80;99.90;;;;;;5053256;28;20926;-67
2021/09/07 12:11:09;;;;;;;7.07;6.37;;;25.70;99.90;;;;;;5052899;28;20470;-67
2021/09/07 12:13:36;;;;;;;6.03;5.53;;;25.70;99.90;;;;;;5052427;28;20469;-67
2021/09/07 12:16:04;;;;;;;6.43;5.83;;;25.60;99.90;;;;;;5053186;28;20471;-67
2021/09/07 12:18:36;;;;;;;6.63;5.90;;;25.70;99.90;;;;;;5052448;28;20479;-67
2021/09/07 12:21:17;;;;;;;7.90;5.90;;;25.70;99.90;;;;;;5052720;28;20467;-67
2021/09/07 12:23:47;;;;;;;7.30;5.70;;;25.80;99.90;;;;;;5053093;28;20463;-67
2021/09/07 12:26:14;;;;;;;7.53;6.13;;;25.70;99.90;;;;;;5052598;28;20557;-68
2021/09/07 12:28:42;;;;;;;6.60;5.90;;;25.80;99.90;;;;;;5057405;22;20496;-92
2021/09/07 12:34:01;;;;;;;6.90;5.80;;;25.80;99.90;;;;;;5042055;28;20500;-91
2021/09/07 12:36:44;;;;;;;7.70;5.90;;;25.90;99.90;;;;;;5036604;28;20456;-90
2021/09/07 12:39:10;;;;;;;6.70;6.20;;;25.90;99.90;;;;;;5054294;28;21010;-91
2021/09/07 12:41:37;;;;;;;7.83;7.13;;;26.00;99.90;;;;;;5053863;28;20470;-90
2021/09/07 12:44:04;;;;;;;9.20;6.90;;;25.90;99.40;;;;;;5053718;28;20577;-91
2021/09/07 12:46:31;;;;;;;5.90;5.40;;;25.90;99.90;;;;;;5053862;28;20782;-91
2021/09/07 12:48:58;;;;;;;6.50;5.90;;;25.90;99.90;;;;;;5053518;28;20881;-90
2021/09/07 12:51:25;;;;;;;7.00;6.30;;;25.60;99.40;;;;;;5074730;22;20494;-72
2021/09/07 12:53:58;;;;;;;6.43;5.93;;;25.60;99.90;;;;;;5071867;28;20458;-72
2021/09/07 12:56:29;;;;;;;6.80;5.77;;;25.50;99.90;;;;;;5072189;28;20458;-72
2021/09/07 12:58:59;;;;;;;9.73;6.50;;;25.60;99.90;;;;;;5052471;28;20502;-72
2021/09/07 13:01:27;;;;;;;6.37;5.70;;;25.60;99.90;;;;;;5051134;28;20470;-73
2021/09/07 13:03:54;;;;;;;8.30;7.07;;;25.60;99.90;;;;;;5051992;28;20467;-72
2021/09/07 13:06:22;;;;;;;7.17;6.47;;;25.70;99.90;;;;;;5052403;28;20951;-72
2021/09/07 13:08:50;;;;;;;6.77;6.17;;;25.70;99.90;;;;;;5036685;28;20480;-72
2021/09/07 13:11:19;;;;;;;5.97;5.47;;;25.80;99.90;;;;;;5032133;28;20456;-72
2021/09/07 13:13:46;;;;;;;6.83;6.23;;;25.70;99.90;;;;;;5031578;28;20880;-72
2021/09/07 13:16:17;;;;;;;8.57;7.67;;;25.70;99.90;;;;;;5031763;28;20468;-72
2021/09/07 13:18:47;;;;;;;7.80;7.10;;;25.80;99.90;;;;;;5031834;28;20916;-72
2021/09/07 13:21:15;;;;;;;7.30;6.60;;;25.80;99.90;;;;;;5031840;28;20452;-72